createdAt,value
2023-04-19T00:02:14.146Z,26.90
2023-04-19T00:04:40.804Z,26.59
2023-04-19T00:07:07.606Z,26.57
2023-04-19T00:09:34.193Z,26.89
2023-04-19T00:12:01.141Z,26.46
2023-04-19T00:14:27.735Z,26.07
2023-04-19T00:16:54.360Z,26.18
2023-04-19T00:19:22.326Z,26.15
2023-04-19T00:21:49.196Z,25.97
2023-04-19T00:24:16.105Z,25.55
2023-04-19T00:26:42.723Z,26.05
2023-04-19T00:29:09.596Z,25.67
2023-04-19T00:31:36.087Z,25.58
2023-04-19T00:34:03.919Z,25.25
2023-04-19T00:36:30.689Z,25.09
2023-04-19T00:38:57.289Z,24.94
2023-04-19T00:41:23.795Z,24.60
2023-04-19T00:43:50.366Z,24.72
2023-04-19T00:46:17.029Z,24.40
2023-04-19T00:48:45.316Z,24.36
2023-04-19T00:51:12.747Z,24.39
2023-04-19T00:53:40.554Z,24.17
2023-04-19T00:56:07.242Z,24.13
2023-04-19T00:58:33.795Z,23.95
2023-04-19T01:01:00.432Z,24.10
2023-04-19T01:03:30.273Z,23.99
2023-04-19T01:05:57.469Z,23.73
2023-04-19T01:08:24.287Z,23.71
2023-04-19T01:10:53.659Z,23.31
2023-04-19T01:13:20.166Z,23.68
2023-04-19T01:15:48.301Z,23.51
2023-04-19T01:18:14.996Z,23.35
2023-04-19T01:20:42.618Z,23.51
2023-04-19T01:23:11.597Z,23.73
2023-04-19T01:25:38.912Z,23.54
2023-04-19T01:28:06.205Z,23.75
2023-04-19T01:30:33.022Z,23.73
2023-04-19T01:33:00.314Z,23.53
2023-04-19T01:35:28.420Z,23.63
2023-04-19T01:37:56.258Z,23.54
2023-04-19T01:40:26.718Z,23.27
2023-04-19T01:42:53.436Z,23.45
2023-04-19T01:45:20.078Z,23.41
2023-04-19T01:47:50.242Z,23.57
2023-04-19T01:50:16.866Z,23.73
2023-04-19T01:52:43.513Z,23.64
2023-04-19T01:55:10.326Z,23.83
2023-04-19T01:57:36.827Z,23.49
2023-04-19T02:00:04.103Z,23.77
2023-04-19T02:02:41.184Z,23.56
2023-04-19T02:05:08.523Z,23.72
2023-04-19T02:07:35.252Z,23.94
2023-04-19T02:10:01.824Z,24.13
2023-04-19T02:12:28.906Z,24.11
2023-04-19T02:14:59.544Z,24.21
2023-04-19T02:17:34.344Z,24.21
2023-04-19T02:20:00.914Z,24.51
2023-04-19T02:22:27.513Z,24.54
2023-04-19T02:24:54.095Z,24.78
2023-04-19T02:27:26.942Z,24.57
2023-04-19T02:29:54.304Z,24.51
2023-04-19T02:32:20.969Z,24.61
2023-04-19T02:34:47.472Z,24.83
2023-04-19T02:37:14.105Z,24.61
2023-04-19T02:39:42.602Z,25.15
2023-04-19T02:42:09.105Z,25.01
2023-04-19T02:44:35.593Z,24.91
2023-04-19T02:47:02.129Z,24.91
2023-04-19T02:49:33.110Z,24.82
2023-04-19T02:51:59.986Z,24.94
2023-04-19T02:54:26.696Z,25.00
2023-04-19T02:56:53.238Z,25.24
2023-04-19T02:59:19.735Z,25.27
2023-04-19T03:01:46.525Z,25.15
2023-04-19T03:04:13.461Z,25.49
2023-04-19T03:06:42.114Z,25.45
2023-04-19T03:09:08.649Z,25.40
2023-04-19T03:11:36.941Z,25.56
2023-04-19T03:14:03.525Z,25.83
2023-04-19T03:16:30.266Z,25.58
2023-04-19T03:18:57.093Z,25.58
2023-04-19T03:21:29.089Z,25.69
2023-04-19T03:23:56.140Z,26.10
2023-04-19T03:26:24.479Z,26.00
2023-04-19T03:28:53.402Z,26.00
2023-04-19T03:31:35.079Z,26.22
2023-04-19T03:34:02.655Z,26.39
2023-04-19T03:36:35.566Z,26.35
2023-04-19T03:39:03.654Z,26.11
2023-04-19T03:41:30.214Z,26.19
2023-04-19T03:44:05.320Z,26.06
2023-04-19T03:46:31.939Z,26.46
2023-04-19T03:48:59.382Z,26.57
2023-04-19T03:51:27.328Z,26.15
2023-04-19T03:53:53.872Z,26.76
2023-04-19T03:56:20.717Z,26.60
2023-04-19T03:58:49.267Z,26.53
2023-04-19T04:01:19.862Z,26.52
2023-04-19T04:03:46.578Z,26.48
2023-04-19T04:06:13.378Z,26.73
2023-04-19T04:08:40.083Z,27.13
2023-04-19T04:11:06.575Z,27.40
2023-04-19T04:13:33.135Z,26.98
2023-04-19T04:16:08.401Z,27.16
2023-04-19T04:18:35.201Z,27.30
2023-04-19T04:21:04.591Z,27.57
2023-04-19T04:23:33.850Z,27.15
2023-04-19T04:26:01.796Z,27.58
2023-04-19T04:28:43.024Z,27.53
2023-04-19T04:31:10.230Z,27.42
2023-04-19T04:33:37.180Z,27.69
2023-04-19T04:36:06.141Z,28.09
2023-04-19T04:38:35.821Z,27.65
2023-04-19T04:41:06.048Z,27.85
2023-04-19T04:43:33.583Z,27.75
2023-04-19T04:46:01.026Z,27.78
2023-04-19T04:48:32.806Z,28.07
2023-04-19T04:50:59.356Z,27.75
2023-04-19T04:53:27.218Z,27.87
2023-04-19T04:55:56.526Z,28.01
2023-04-19T04:58:23.196Z,28.06
2023-04-19T05:01:19.637Z,27.89
2023-04-19T05:03:47.566Z,28.06
2023-04-19T05:06:18.238Z,27.93
2023-04-19T05:08:45.647Z,27.81
2023-04-19T05:11:18.681Z,28.26
2023-04-19T05:13:46.079Z,28.11
2023-04-19T05:16:13.519Z,28.43
2023-04-19T05:18:43.261Z,28.15
2023-04-19T05:21:10.470Z,28.53
2023-04-19T05:23:38.603Z,28.47
2023-04-19T05:26:05.800Z,28.65
2023-04-19T05:28:32.623Z,28.44
2023-04-19T05:31:09.170Z,28.42
2023-04-19T05:33:44.077Z,28.20
2023-04-19T05:36:10.685Z,28.33
2023-04-19T05:38:37.238Z,28.20
2023-04-19T05:41:04.809Z,28.31
2023-04-19T05:43:31.346Z,28.36
2023-04-19T05:45:58.351Z,28.46
2023-04-19T05:48:25.601Z,28.54
2023-04-19T05:51:10.226Z,28.29
2023-04-19T05:54:00.672Z,28.65
2023-04-19T05:56:27.205Z,28.63
2023-04-19T05:58:56.202Z,28.40
2023-04-19T06:01:23.361Z,28.32
2023-04-19T06:03:53.551Z,28.11
2023-04-19T06:06:24.464Z,27.49
2023-04-19T06:08:53.278Z,25.82
2023-04-19T06:11:26.869Z,24.50
2023-04-19T06:13:58.230Z,22.66
2023-04-19T06:16:25.541Z,20.36
2023-04-19T06:18:52.217Z,19.41
2023-04-19T06:21:18.728Z,18.77
2023-04-19T06:23:45.311Z,18.80
2023-04-19T06:26:11.831Z,17.37
2023-04-19T06:28:38.444Z,16.89
2023-04-19T06:31:05.020Z,15.97
2023-04-19T06:33:31.550Z,14.47
2023-04-19T06:35:58.053Z,13.44
2023-04-19T06:38:24.873Z,12.75
2023-04-19T06:40:51.531Z,13.18
2023-04-19T06:43:18.032Z,12.70
2023-04-19T06:45:44.658Z,12.21
2023-04-19T06:48:11.208Z,11.44
2023-04-19T06:50:37.953Z,11.03
2023-04-19T06:53:04.965Z,10.99
2023-04-19T06:55:31.776Z,10.54
2023-04-19T06:57:58.522Z,9.91
2023-04-19T07:00:25.078Z,9.53
2023-04-19T07:02:52.413Z,9.31
2023-04-19T07:05:19.057Z,9.55
2023-04-19T07:07:45.571Z,9.52
2023-04-19T07:10:12.851Z,9.95
2023-04-19T07:12:39.359Z,9.75
2023-04-19T07:15:06.117Z,8.79
2023-04-19T07:17:35.069Z,8.59
2023-04-19T07:20:01.986Z,9.20
2023-04-19T07:22:28.491Z,8.51
2023-04-19T07:24:54.992Z,8.23
2023-04-19T07:27:21.513Z,9.01
2023-04-19T07:29:48.029Z,9.09
2023-04-19T07:32:15.258Z,9.40
2023-04-19T07:34:42.620Z,9.89
2023-04-19T07:37:09.541Z,10.73
2023-04-19T07:39:36.065Z,10.21
2023-04-19T07:42:02.595Z,10.31
2023-04-19T07:44:29.178Z,9.73
2023-04-19T07:46:55.850Z,8.90
2023-04-19T07:49:22.435Z,9.44
2023-04-19T07:51:49.391Z,9.14
2023-04-19T07:54:20.764Z,8.89
2023-04-19T07:56:47.287Z,8.71
2023-04-19T07:59:13.777Z,8.69
2023-04-19T08:01:40.510Z,8.84
2023-04-19T08:04:08.107Z,8.16
2023-04-19T08:06:37.732Z,8.13
2023-04-19T08:09:04.222Z,8.59
2023-04-19T08:11:31.136Z,8.04
2023-04-19T08:17:09.011Z,8.44
2023-04-19T08:19:14.625Z,7.93
2023-04-19T08:21:41.882Z,8.25
2023-04-19T08:24:08.658Z,8.97
2023-04-19T08:26:35.461Z,8.84
2023-04-19T08:29:01.985Z,9.49
2023-04-19T08:31:28.616Z,9.78
2023-04-19T08:33:55.249Z,9.75
2023-04-19T08:36:35.446Z,10.02
2023-04-19T08:39:12.327Z,10.55
2023-04-19T08:41:48.113Z,10.43
2023-04-19T08:44:25.326Z,10.90
2023-04-19T08:58:44.562Z,12.53
2023-04-19T09:01:26.733Z,12.80
2023-04-19T09:04:07.440Z,13.34
2023-04-19T09:06:47.584Z,13.82
2023-04-19T09:11:51.516Z,14.09
2023-04-19T09:14:19.712Z,14.52
2023-04-19T09:16:46.389Z,14.71
2023-04-19T09:19:23.190Z,15.72
2023-04-19T09:21:53.801Z,15.92
2023-04-19T09:25:02.635Z,16.18
2023-04-19T09:27:34.942Z,15.30
2023-04-19T09:30:02.624Z,15.44
2023-04-19T09:32:42.093Z,15.38
2023-04-19T09:35:08.770Z,15.46
2023-04-19T09:40:25.241Z,14.24
2023-04-19T09:45:30.033Z,13.40
2023-04-19T09:48:02.599Z,13.87
2023-04-19T09:50:31.244Z,14.02
2023-04-19T09:52:59.338Z,14.44
2023-04-19T09:55:28.808Z,13.86
2023-04-19T09:57:56.694Z,13.24
2023-04-19T10:00:23.630Z,13.97
2023-04-19T10:02:57.875Z,13.89
2023-04-19T10:05:25.720Z,13.81
2023-04-19T10:07:54.895Z,13.48
2023-04-19T10:10:33.260Z,13.89
2023-04-19T10:13:19.887Z,13.59
2023-04-19T10:15:53.660Z,13.10
2023-04-19T10:18:24.348Z,13.38
2023-04-19T10:21:01.017Z,13.39
2023-04-19T10:23:28.018Z,12.81
2023-04-19T10:25:58.497Z,13.90
2023-04-19T10:28:25.197Z,14.40
2023-04-19T10:31:02.020Z,13.71
2023-04-19T10:33:31.610Z,13.54
2023-04-19T10:35:59.150Z,13.88
2023-04-19T10:38:44.484Z,14.15
2023-04-19T10:41:18.196Z,13.34
2023-04-19T10:43:55.434Z,13.86
2023-04-19T10:46:22.001Z,13.72
2023-04-19T10:48:53.296Z,14.56
2023-04-19T10:51:22.611Z,13.63
2023-04-19T10:53:49.992Z,13.54
2023-04-19T10:56:21.178Z,13.77
2023-04-19T10:59:03.024Z,12.78
2023-04-19T11:01:39.541Z,12.68
2023-04-19T11:04:13.768Z,13.01
2023-04-19T11:06:52.746Z,12.69
2023-04-19T11:09:29.753Z,12.02
2023-04-19T11:12:03.030Z,12.08
2023-04-19T11:14:36.237Z,11.99
2023-04-19T11:17:05.285Z,12.39
2023-04-19T11:19:31.858Z,12.53
2023-04-19T11:21:59.834Z,12.94
2023-04-19T11:24:26.388Z,13.34
2023-04-19T11:26:55.351Z,13.33
2023-04-19T11:29:22.184Z,13.95
2023-04-19T11:31:48.786Z,13.86
2023-04-19T11:34:15.465Z,13.81
2023-04-19T11:36:52.411Z,13.73
2023-04-19T11:39:19.488Z,14.06
2023-04-19T11:41:47.450Z,14.08
2023-04-19T11:44:20.067Z,14.36
2023-04-19T11:47:03.329Z,13.83
2023-04-19T11:49:31.479Z,14.54
2023-04-19T11:52:05.370Z,14.62
2023-04-19T11:54:33.197Z,14.50
2023-04-19T11:57:04.766Z,14.80
2023-04-19T11:59:32.534Z,15.00
2023-04-19T12:02:10.572Z,15.28
2023-04-19T12:04:37.983Z,15.69
2023-04-19T12:07:05.997Z,15.72
2023-04-19T12:09:36.524Z,15.77
2023-04-19T12:12:03.573Z,16.00
2023-04-19T12:14:31.464Z,16.16
2023-04-19T12:17:10.905Z,15.97
2023-04-19T12:19:42.439Z,15.85
2023-04-19T12:22:10.768Z,16.42
2023-04-19T12:24:37.870Z,15.94
2023-04-19T12:27:04.409Z,15.86
2023-04-19T12:29:31.609Z,15.74
2023-04-19T12:31:58.177Z,15.44
2023-04-19T12:34:24.753Z,15.42
2023-04-19T12:36:51.274Z,15.74
2023-04-19T12:39:17.925Z,15.74
2023-04-19T12:41:44.583Z,15.76
2023-04-19T12:44:11.134Z,15.75
2023-04-19T12:46:37.728Z,16.67
2023-04-19T12:49:04.365Z,15.85
2023-04-19T12:51:31.794Z,15.84
2023-04-19T12:53:58.297Z,15.89
2023-04-19T12:56:24.811Z,15.99
2023-04-19T12:58:51.760Z,16.03
2023-04-19T13:01:18.309Z,16.04
2023-04-19T13:03:46.259Z,15.90
2023-04-19T13:06:15.410Z,15.68
2023-04-19T13:08:46.976Z,16.19
2023-04-19T13:11:15.803Z,15.50
2023-04-19T13:13:42.451Z,14.71
2023-04-19T13:16:09.252Z,14.78
2023-04-19T13:18:35.831Z,14.96
2023-04-19T13:21:02.455Z,14.98
2023-04-19T13:23:28.936Z,14.30
2023-04-19T13:25:55.448Z,13.92
2023-04-19T13:28:22.011Z,14.06
2023-04-19T13:30:48.767Z,14.80
2023-04-19T13:33:15.748Z,14.38
2023-04-19T13:35:45.011Z,14.16
2023-04-19T13:38:11.673Z,13.12
2023-04-19T13:40:39.605Z,12.63
2023-04-19T13:43:06.171Z,12.58
2023-04-19T13:45:32.680Z,12.92
2023-04-19T13:47:59.705Z,12.78
2023-04-19T13:50:26.315Z,13.10
2023-04-19T13:52:53.338Z,13.05
2023-04-19T13:55:20.297Z,13.11
2023-04-19T13:57:46.773Z,13.33
2023-04-19T14:00:13.777Z,13.57
2023-04-19T14:02:40.496Z,13.79
2023-04-19T14:05:07.458Z,14.12
2023-04-19T14:07:33.988Z,14.03
2023-04-19T14:10:00.555Z,14.21
2023-04-19T14:12:29.478Z,14.87
2023-04-19T14:14:56.051Z,15.02
2023-04-19T14:17:22.586Z,15.19
2023-04-19T14:19:49.155Z,15.28
2023-04-19T14:22:18.676Z,15.89
2023-04-19T14:24:46.287Z,16.53
2023-04-19T14:27:12.754Z,16.75
2023-04-19T14:29:39.816Z,17.23
2023-04-19T14:32:23.621Z,16.86
2023-04-19T14:34:52.480Z,16.81
2023-04-19T14:37:19.253Z,16.92
2023-04-19T14:39:46.256Z,17.26
2023-04-19T14:42:12.824Z,17.48
2023-04-19T14:44:40.341Z,17.29
2023-04-19T14:47:06.823Z,17.63
2023-04-19T14:49:33.532Z,17.15
2023-04-19T14:52:00.031Z,16.86
2023-04-19T14:54:26.552Z,17.27
2023-04-19T14:56:53.727Z,16.93
2023-04-19T14:59:22.943Z,17.02
2023-04-19T15:01:49.535Z,16.89
2023-04-19T15:04:19.525Z,17.06
2023-04-19T15:06:49.067Z,16.93
2023-04-19T15:09:18.876Z,17.81
2023-04-19T15:11:47.770Z,18.45
2023-04-19T15:14:14.335Z,19.13
2023-04-19T15:16:40.930Z,19.52
2023-04-19T15:19:07.964Z,19.81
2023-04-19T15:21:34.647Z,20.28
2023-04-19T15:24:01.560Z,21.00
2023-04-19T15:26:28.255Z,21.87
2023-04-19T15:28:55.777Z,22.63
2023-04-19T15:31:22.563Z,23.28
2023-04-19T15:33:49.308Z,24.07
2023-04-19T15:36:16.281Z,24.72
2023-04-19T15:38:44.038Z,25.59
2023-04-19T15:41:11.065Z,26.60
2023-04-19T15:43:37.534Z,27.21
2023-04-19T15:46:04.188Z,28.67
2023-04-19T15:48:30.770Z,28.67
2023-04-19T15:50:57.305Z,29.00
2023-04-19T15:53:23.959Z,29.11
2023-04-19T15:55:50.491Z,29.75
2023-04-19T15:58:17.059Z,30.73
2023-04-19T16:00:43.569Z,30.67
2023-04-19T16:03:12.412Z,30.91
2023-04-19T16:05:39.169Z,31.64
2023-04-19T16:08:09.987Z,31.88
2023-04-19T16:10:36.897Z,32.25
2023-04-19T16:13:04.858Z,32.56
2023-04-19T16:15:31.896Z,32.87
2023-04-19T16:17:58.634Z,33.09
2023-04-19T16:20:25.175Z,33.48
2023-04-19T16:22:51.653Z,34.04
2023-04-19T16:25:18.211Z,34.40
2023-04-19T16:27:46.208Z,34.08
2023-04-19T16:30:13.713Z,34.53
2023-04-19T16:32:41.516Z,34.64
2023-04-19T16:35:08.390Z,34.11
2023-04-19T16:37:35.634Z,33.97
2023-04-19T16:40:08.021Z,33.70
2023-04-19T16:42:35.018Z,33.45
2023-04-19T16:45:01.507Z,33.51
2023-04-19T16:47:30.039Z,33.33
2023-04-19T16:49:57.398Z,33.73
2023-04-19T16:52:26.142Z,33.57
2023-04-19T16:54:52.784Z,33.28
2023-04-19T16:57:19.488Z,33.49
2023-04-19T16:59:46.495Z,33.75
2023-04-19T17:02:13.207Z,33.39
2023-04-19T17:04:40.047Z,33.51
2023-04-19T17:07:08.545Z,33.61
2023-04-19T17:09:35.609Z,34.24
2023-04-19T17:12:02.305Z,34.51
2023-04-19T17:14:28.902Z,34.15
2023-04-19T17:16:55.605Z,33.91
2023-04-19T17:19:22.066Z,33.87
2023-04-19T17:21:48.645Z,33.77
2023-04-19T17:24:15.135Z,33.68
2023-04-19T17:26:41.665Z,33.95
2023-04-19T17:29:08.459Z,34.13
2023-04-19T17:31:35.233Z,33.96
2023-04-19T17:34:01.759Z,33.86
2023-04-19T17:36:28.658Z,33.72
2023-04-19T17:38:55.253Z,34.33
2023-04-19T17:41:21.789Z,34.71
2023-04-19T17:43:48.353Z,34.72
2023-04-19T17:46:15.107Z,34.76
2023-04-19T17:48:41.905Z,34.79
2023-04-19T17:51:08.433Z,34.83
2023-04-19T17:53:34.939Z,34.59
2023-04-19T17:56:01.747Z,35.58
2023-04-19T17:58:28.304Z,35.17
2023-04-19T18:00:54.782Z,35.85
2023-04-19T18:03:21.414Z,35.51
2023-04-19T18:05:48.373Z,35.63
2023-04-19T18:08:15.180Z,35.67
2023-04-19T18:10:41.675Z,36.04
2023-04-19T18:13:08.230Z,35.74
2023-04-19T18:15:34.716Z,36.11
2023-04-19T18:18:01.280Z,36.34
2023-04-19T18:20:27.882Z,36.05
2023-04-19T18:22:54.408Z,35.94
2023-04-19T18:25:21.005Z,36.18
2023-04-19T18:27:48.329Z,36.42
2023-04-19T18:30:14.872Z,36.29
2023-04-19T18:32:41.405Z,36.82
2023-04-19T18:35:11.198Z,36.97
2023-04-19T18:37:37.815Z,37.62
2023-04-19T18:40:07.356Z,37.50
2023-04-19T18:42:33.950Z,37.30
2023-04-19T18:45:00.478Z,36.77
2023-04-19T18:47:27.062Z,37.12
2023-04-19T18:50:04.630Z,36.47
2023-04-19T18:52:34.300Z,36.30
2023-04-19T18:55:00.949Z,36.21
2023-04-19T18:57:27.987Z,36.03
2023-04-19T18:59:57.743Z,36.18
2023-04-19T19:02:24.461Z,36.27
2023-04-19T19:04:57.972Z,36.35
2023-04-19T19:07:36.288Z,35.95
2023-04-19T19:10:17.093Z,35.90
2023-04-19T19:12:45.638Z,35.95
2023-04-19T19:15:14.090Z,36.24
2023-04-19T19:17:40.991Z,36.33
2023-04-19T19:20:08.186Z,36.01
2023-04-19T19:22:34.858Z,36.02
2023-04-19T19:25:01.453Z,36.34
2023-04-19T19:27:28.011Z,36.60
2023-04-19T19:29:55.023Z,35.96
2023-04-19T19:32:22.238Z,36.36
2023-04-19T19:37:19.198Z,36.44
2023-04-19T19:39:46.509Z,36.18
2023-04-19T19:42:16.297Z,36.26
2023-04-19T19:44:43.031Z,36.21
2023-04-19T19:47:10.892Z,36.22
2023-04-19T19:52:07.420Z,36.05
2023-04-19T19:54:34.057Z,36.19
2023-04-19T19:57:48.319Z,36.17
2023-04-19T19:59:54.372Z,36.05
2023-04-19T20:02:23.332Z,36.07
2023-04-19T20:04:50.749Z,36.04
2023-04-19T20:07:33.224Z,36.06
2023-04-19T20:10:14.568Z,35.70
2023-04-19T20:12:42.918Z,35.84
2023-04-19T20:15:13.259Z,35.63
2023-04-19T20:17:40.654Z,35.80
2023-04-19T20:20:08.934Z,35.71
2023-04-19T20:22:35.733Z,35.84
2023-04-19T20:25:02.223Z,36.22
2023-04-19T20:27:28.751Z,35.82
2023-04-19T20:29:56.592Z,35.78
2023-04-19T20:32:23.367Z,35.87
2023-04-19T20:34:49.984Z,35.82
2023-04-19T20:37:17.485Z,35.71
2023-04-19T20:39:44.140Z,35.52
2023-04-19T20:42:10.617Z,35.51
2023-04-19T20:44:37.387Z,35.67
2023-04-19T20:47:03.888Z,35.09
2023-04-19T20:49:30.341Z,35.57
2023-04-19T20:51:56.839Z,35.47
2023-04-19T20:54:23.337Z,35.54
2023-04-19T20:56:52.402Z,35.58
2023-04-19T20:59:19.106Z,35.55
2023-04-19T21:01:45.758Z,35.42
2023-04-19T21:04:12.327Z,35.62
2023-04-19T21:06:39.049Z,35.25
2023-04-19T21:09:05.566Z,35.42
2023-04-19T21:11:32.136Z,35.48
2023-04-19T21:13:58.640Z,35.49
2023-04-19T21:16:25.381Z,35.47
2023-04-19T21:18:51.978Z,35.39
2023-04-19T21:21:18.508Z,35.52
2023-04-19T21:23:45.096Z,35.75
2023-04-19T21:26:11.786Z,35.49
2023-04-19T21:28:38.330Z,35.35
2023-04-19T21:31:05.116Z,35.35
2023-04-19T21:33:31.681Z,35.19
2023-04-19T21:35:58.176Z,35.74
2023-04-19T21:38:24.668Z,35.29
2023-04-19T21:40:51.937Z,35.41
2023-04-19T21:43:18.528Z,35.52
2023-04-19T21:45:45.015Z,35.53
2023-04-19T21:48:12.003Z,35.50
2023-04-19T21:50:38.542Z,35.67
2023-04-19T21:53:05.050Z,35.56
2023-04-19T21:55:32.402Z,35.42
2023-04-19T21:57:59.025Z,35.33
2023-04-19T22:00:25.547Z,35.22
2023-04-19T22:02:52.172Z,35.05
2023-04-19T22:05:18.858Z,35.32
2023-04-19T22:07:45.425Z,35.74
2023-04-19T22:10:13.653Z,35.59
2023-04-19T22:12:48.253Z,35.82
2023-04-19T22:15:25.812Z,34.98
2023-04-19T22:17:52.326Z,35.32
2023-04-19T22:20:18.813Z,35.40
2023-04-19T22:22:45.347Z,35.58
2023-04-19T22:25:11.822Z,35.61
2023-04-19T22:27:38.313Z,36.05
2023-04-19T22:30:05.494Z,35.81
2023-04-19T22:32:32.100Z,35.84
2023-04-19T22:34:58.618Z,35.59
2023-04-19T22:37:25.130Z,35.42
2023-04-19T22:39:51.637Z,35.48
2023-04-19T22:42:18.154Z,35.24
2023-04-19T22:44:44.641Z,35.26
2023-04-19T22:47:11.920Z,35.74
2023-04-19T22:49:38.438Z,35.90
2023-04-19T22:52:04.938Z,35.89
2023-04-19T22:54:31.409Z,35.70
2023-04-19T22:56:59.092Z,35.64
2023-04-19T22:59:25.576Z,35.67
2023-04-19T23:01:52.168Z,35.58
2023-04-19T23:04:19.589Z,35.69
2023-04-19T23:06:48.785Z,35.73
2023-04-19T23:09:15.874Z,36.12
2023-04-19T23:11:42.595Z,36.29
2023-04-19T23:14:10.353Z,35.73
2023-04-19T23:16:38.575Z,36.24
2023-04-19T23:19:08.199Z,35.84
2023-04-19T23:21:34.713Z,35.60
2023-04-19T23:24:01.296Z,35.84
2023-04-19T23:26:27.874Z,36.32
2023-04-19T23:28:54.408Z,35.83
2023-04-19T23:31:21.099Z,35.91
2023-04-19T23:33:48.162Z,35.77
2023-04-19T23:36:14.832Z,35.93
2023-04-19T23:38:41.344Z,35.80
2023-04-19T23:41:11.189Z,35.78
2023-04-19T23:43:37.813Z,35.79
2023-04-19T23:46:04.361Z,35.92
2023-04-19T23:48:31.026Z,35.46
2023-04-19T23:50:57.507Z,35.32
2023-04-19T23:53:24.000Z,35.10
2023-04-19T23:55:50.853Z,35.25
2023-04-19T23:58:17.357Z,35.66
